sensor_id;sensor_type;location;lat;lon;timestamp;temperature;humidity
35668;DHT22;22158;59.280;17.806;2022-07-05T00:00:59;15.00;99.90
35668;DHT22;22158;59.280;17.806;2022-07-05T00:03:25;15.00;99.90
35668;DHT22;22158;59.280;17.806;2022-07-05T00:05:52;14.90;99.90
35668;DHT22;22158;59.280;17.806;2022-07-05T00:08:18;14.90;99.90
35668;DHT22;22158;59.280;17.806;2022-07-05T00:10:44;14.80;99.90
35668;DHT22;22158;59.280;17.806;2022-07-05T00:13:10;14.80;99.90
35668;DHT22;22158;59.280;17.806;2022-07-05T00:15:36;14.80;99.90
35668;DHT22;22158;59.280;17.806;2022-07-05T00:18:02;14.80;99.90
35668;DHT22;22158;59.280;17.806;2022-07-05T00:20:28;14.70;99.90
35668;DHT22;22158;59.280;17.806;2022-07-05T00:22:53;14.60;99.90
35668;DHT22;22158;59.280;17.806;2022-07-05T00:25:19;14.60;99.90
35668;DHT22;22158;59.280;17.806;2022-07-05T00:27:45;14.50;99.90
35668;DHT22;22158;59.280;17.806;2022-07-05T00:30:11;14.50;99.90
35668;DHT22;22158;59.280;17.806;2022-07-05T00:32:37;14.50;99.90
35668;DHT22;22158;59.280;17.806;2022-07-05T00:35:05;14.40;99.90
35668;DHT22;22158;59.280;17.806;2022-07-05T00:37:31;14.50;99.90
35668;DHT22;22158;59.280;17.806;2022-07-05T00:39:57;14.40;99.90
35668;DHT22;22158;59.280;17.806;2022-07-05T00:42:22;14.40;99.90
35668;DHT22;22158;59.280;17.806;2022-07-05T00:44:48;14.30;99.90
35668;DHT22;22158;59.280;17.806;2022-07-05T00:47:14;14.40;99.90
35668;DHT22;22158;59.280;17.806;2022-07-05T00:49:41;14.30;99.90
35668;DHT22;22158;59.280;17.806;2022-07-05T00:52:07;14.30;99.90
35668;DHT22;22158;59.280;17.806;2022-07-05T00:54:35;14.30;99.90
35668;DHT22;22158;59.280;17.806;2022-07-05T00:57:02;14.30;99.90
35668;DHT22;22158;59.280;17.806;2022-07-05T00:59:28;14.30;99.90
35668;DHT22;22158;59.280;17.806;2022-07-05T01:01:54;14.20;99.90
35668;DHT22;22158;59.280;17.806;2022-07-05T01:04:20;14.20;99.90
35668;DHT22;22158;59.280;17.806;2022-07-05T01:06:48;14.20;99.90
35668;DHT22;22158;59.280;17.806;2022-07-05T01:09:16;14.20;99.90
35668;DHT22;22158;59.280;17.806;2022-07-05T01:11:43;14.20;99.90
35668;DHT22;22158;59.280;17.806;2022-07-05T01:14:12;14.20;99.90
35668;DHT22;22158;59.280;17.806;2022-07-05T01:16:38;14.20;99.90
35668;DHT22;22158;59.280;17.806;2022-07-05T01:19:08;14.20;99.90
35668;DHT22;22158;59.280;17.806;2022-07-05T01:21:40;14.20;99.90
35668;DHT22;22158;59.280;17.806;2022-07-05T01:24:07;14.20;99.90
35668;DHT22;22158;59.280;17.806;2022-07-05T01:26:33;14.20;99.90
35668;DHT22;22158;59.280;17.806;2022-07-05T01:28:59;14.20;99.90
35668;DHT22;22158;59.280;17.806;2022-07-05T01:31:25;14.20;99.90
35668;DHT22;22158;59.280;17.806;2022-07-05T01:33:51;14.20;99.90
35668;DHT22;22158;59.280;17.806;2022-07-05T01:36:17;14.20;99.90
35668;DHT22;22158;59.280;17.806;2022-07-05T01:38:43;14.10;99.90
35668;DHT22;22158;59.280;17.806;2022-07-05T01:41:09;14.10;99.90
35668;DHT22;22158;59.280;17.806;2022-07-05T01:43:35;14.10;99.90
35668;DHT22;22158;59.280;17.806;2022-07-05T01:46:02;14.10;99.90
35668;DHT22;22158;59.280;17.806;2022-07-05T01:48:32;14.10;99.90
35668;DHT22;22158;59.280;17.806;2022-07-05T01:51:05;14.10;99.90
35668;DHT22;22158;59.280;17.806;2022-07-05T01:53:32;14.10;99.90
35668;DHT22;22158;59.280;17.806;2022-07-05T01:56:03;14.10;99.90
35668;DHT22;22158;59.280;17.806;2022-07-05T01:58:30;14.10;99.90
35668;DHT22;22158;59.280;17.806;2022-07-05T02:00:57;14.10;99.90
35668;DHT22;22158;59.280;17.806;2022-07-05T02:03:23;14.10;99.90
35668;DHT22;22158;59.280;17.806;2022-07-05T02:05:49;14.20;99.90
35668;DHT22;22158;59.280;17.806;2022-07-05T02:08:16;14.20;99.90
35668;DHT22;22158;59.280;17.806;2022-07-05T02:10:43;14.20;99.90
35668;DHT22;22158;59.280;17.806;2022-07-05T02:13:10;14.10;99.90
35668;DHT22;22158;59.280;17.806;2022-07-05T02:15:40;14.20;99.90
35668;DHT22;22158;59.280;17.806;2022-07-05T02:18:07;14.20;99.90
35668;DHT22;22158;59.280;17.806;2022-07-05T02:20:34;14.20;99.90
35668;DHT22;22158;59.280;17.806;2022-07-05T02:23:00;14.20;99.90
35668;DHT22;22158;59.280;17.806;2022-07-05T02:25:26;14.20;99.90
35668;DHT22;22158;59.280;17.806;2022-07-05T02:27:52;14.20;99.90
35668;DHT22;22158;59.280;17.806;2022-07-05T02:30:19;14.10;99.90
35668;DHT22;22158;59.280;17.806;2022-07-05T02:32:45;14.20;99.90
35668;DHT22;22158;59.280;17.806;2022-07-05T02:35:11;14.20;99.90
35668;DHT22;22158;59.280;17.806;2022-07-05T02:37:37;14.20;99.90
35668;DHT22;22158;59.280;17.806;2022-07-05T02:40:09;14.30;99.90
35668;DHT22;22158;59.280;17.806;2022-07-05T02:42:36;14.30;99.90
35668;DHT22;22158;59.280;17.806;2022-07-05T02:45:01;14.30;99.90
35668;DHT22;22158;59.280;17.806;2022-07-05T02:47:33;14.40;99.90
35668;DHT22;22158;59.280;17.806;2022-07-05T02:50:06;14.50;99.90
35668;DHT22;22158;59.280;17.806;2022-07-05T02:52:32;14.50;99.90
35668;DHT22;22158;59.280;17.806;2022-07-05T02:54:58;14.50;99.90
35668;DHT22;22158;59.280;17.806;2022-07-05T02:57:24;14.50;99.90
35668;DHT22;22158;59.280;17.806;2022-07-05T02:59:53;14.50;99.90
35668;DHT22;22158;59.280;17.806;2022-07-05T03:02:19;14.60;99.90
35668;DHT22;22158;59.280;17.806;2022-07-05T03:04:44;14.50;99.90
35668;DHT22;22158;59.280;17.806;2022-07-05T03:07:10;14.50;99.90
35668;DHT22;22158;59.280;17.806;2022-07-05T03:09:36;14.60;99.90
35668;DHT22;22158;59.280;17.806;2022-07-05T03:12:02;14.50;99.90
35668;DHT22;22158;59.280;17.806;2022-07-05T03:14:27;14.60;99.90
35668;DHT22;22158;59.280;17.806;2022-07-05T03:16:53;14.60;99.90
35668;DHT22;22158;59.280;17.806;2022-07-05T03:19:19;14.60;99.90
35668;DHT22;22158;59.280;17.806;2022-07-05T03:21:44;14.60;99.90
35668;DHT22;22158;59.280;17.806;2022-07-05T03:24:10;14.60;99.90
35668;DHT22;22158;59.280;17.806;2022-07-05T03:26:36;14.60;99.90
35668;DHT22;22158;59.280;17.806;2022-07-05T03:29:02;14.60;99.90
35668;DHT22;22158;59.280;17.806;2022-07-05T03:31:28;14.60;99.90
35668;DHT22;22158;59.280;17.806;2022-07-05T03:33:53;14.70;99.90
35668;DHT22;22158;59.280;17.806;2022-07-05T03:36:19;14.70;99.90
35668;DHT22;22158;59.280;17.806;2022-07-05T03:38:45;14.70;99.90
35668;DHT22;22158;59.280;17.806;2022-07-05T03:41:10;14.70;99.90
35668;DHT22;22158;59.280;17.806;2022-07-05T03:43:36;14.70;99.90
35668;DHT22;22158;59.280;17.806;2022-07-05T03:46:01;14.70;99.90
35668;DHT22;22158;59.280;17.806;2022-07-05T03:48:27;14.70;99.90
35668;DHT22;22158;59.280;17.806;2022-07-05T03:50:53;14.70;99.90
35668;DHT22;22158;59.280;17.806;2022-07-05T03:53:18;14.70;99.90
35668;DHT22;22158;59.280;17.806;2022-07-05T03:55:44;14.70;99.90
35668;DHT22;22158;59.280;17.806;2022-07-05T03:58:10;14.80;99.90
35668;DHT22;22158;59.280;17.806;2022-07-05T04:00:36;14.90;99.90
35668;DHT22;22158;59.280;17.806;2022-07-05T04:03:01;15.00;99.90
35668;DHT22;22158;59.280;17.806;2022-07-05T04:05:27;15.10;99.90
35668;DHT22;22158;59.280;17.806;2022-07-05T04:07:55;15.20;99.90
35668;DHT22;22158;59.280;17.806;2022-07-05T04:10:21;15.30;99.90
35668;DHT22;22158;59.280;17.806;2022-07-05T04:12:47;15.30;99.90
35668;DHT22;22158;59.280;17.806;2022-07-05T04:15:13;15.30;99.90
35668;DHT22;22158;59.280;17.806;2022-07-05T04:17:49;15.30;99.90
35668;DHT22;22158;59.280;17.806;2022-07-05T04:20:15;15.20;99.90
35668;DHT22;22158;59.280;17.806;2022-07-05T04:22:41;15.20;99.90
35668;DHT22;22158;59.280;17.806;2022-07-05T04:25:07;15.20;99.90
35668;DHT22;22158;59.280;17.806;2022-07-05T04:27:53;15.10;99.90
35668;DHT22;22158;59.280;17.806;2022-07-05T04:30:21;15.10;99.90
35668;DHT22;22158;59.280;17.806;2022-07-05T04:32:47;15.20;99.90
35668;DHT22;22158;59.280;17.806;2022-07-05T04:35:13;15.20;99.90
35668;DHT22;22158;59.280;17.806;2022-07-05T04:37:40;15.20;99.90
35668;DHT22;22158;59.280;17.806;2022-07-05T04:40:08;15.20;99.90
35668;DHT22;22158;59.280;17.806;2022-07-05T04:42:34;15.20;99.90
35668;DHT22;22158;59.280;17.806;2022-07-05T04:45:00;15.30;99.90
35668;DHT22;22158;59.280;17.806;2022-07-05T04:47:26;15.30;99.90
35668;DHT22;22158;59.280;17.806;2022-07-05T04:49:54;15.30;99.90
35668;DHT22;22158;59.280;17.806;2022-07-05T04:52:20;15.30;99.90
35668;DHT22;22158;59.280;17.806;2022-07-05T04:54:46;15.30;99.90
35668;DHT22;22158;59.280;17.806;2022-07-05T04:57:12;15.40;99.90
35668;DHT22;22158;59.280;17.806;2022-07-05T04:59:37;15.40;99.90
35668;DHT22;22158;59.280;17.806;2022-07-05T05:02:03;15.50;99.90
35668;DHT22;22158;59.280;17.806;2022-07-05T05:04:29;15.50;99.90
35668;DHT22;22158;59.280;17.806;2022-07-05T05:06:55;15.60;99.90
35668;DHT22;22158;59.280;17.806;2022-07-05T05:09:20;15.70;99.90
35668;DHT22;22158;59.280;17.806;2022-07-05T05:11:46;15.60;99.90
35668;DHT22;22158;59.280;17.806;2022-07-05T05:14:12;15.60;99.90
35668;DHT22;22158;59.280;17.806;2022-07-05T05:16:38;15.70;99.90
35668;DHT22;22158;59.280;17.806;2022-07-05T05:19:04;15.70;99.90
35668;DHT22;22158;59.280;17.806;2022-07-05T05:21:29;15.80;99.90
35668;DHT22;22158;59.280;17.806;2022-07-05T05:23:55;15.80;99.90
35668;DHT22;22158;59.280;17.806;2022-07-05T05:26:21;15.80;99.90
35668;DHT22;22158;59.280;17.806;2022-07-05T05:28:47;15.90;99.90
35668;DHT22;22158;59.280;17.806;2022-07-05T05:31:12;15.90;99.90
35668;DHT22;22158;59.280;17.806;2022-07-05T05:33:38;15.80;99.90
35668;DHT22;22158;59.280;17.806;2022-07-05T05:36:05;15.80;99.90
35668;DHT22;22158;59.280;17.806;2022-07-05T05:38:31;15.80;99.90
35668;DHT22;22158;59.280;17.806;2022-07-05T05:40:57;15.90;99.90
35668;DHT22;22158;59.280;17.806;2022-07-05T05:43:23;15.80;99.90
35668;DHT22;22158;59.280;17.806;2022-07-05T05:45:49;15.80;99.90
35668;DHT22;22158;59.280;17.806;2022-07-05T05:48:14;15.80;99.90
35668;DHT22;22158;59.280;17.806;2022-07-05T05:50:40;15.80;99.90
35668;DHT22;22158;59.280;17.806;2022-07-05T05:53:06;15.90;99.90
35668;DHT22;22158;59.280;17.806;2022-07-05T05:55:33;16.00;99.90
35668;DHT22;22158;59.280;17.806;2022-07-05T05:58:14;16.10;99.90
35668;DHT22;22158;59.280;17.806;2022-07-05T06:00:41;16.10;99.90
35668;DHT22;22158;59.280;17.806;2022-07-05T06:03:07;16.00;99.90
35668;DHT22;22158;59.280;17.806;2022-07-05T06:05:33;16.00;99.90
35668;DHT22;22158;59.280;17.806;2022-07-05T06:07:58;16.00;99.90
35668;DHT22;22158;59.280;17.806;2022-07-05T06:10:28;16.00;99.90
35668;DHT22;22158;59.280;17.806;2022-07-05T06:12:57;16.00;99.90
35668;DHT22;22158;59.280;17.806;2022-07-05T06:15:22;16.10;99.90
35668;DHT22;22158;59.280;17.806;2022-07-05T06:17:48;16.10;99.90
35668;DHT22;22158;59.280;17.806;2022-07-05T06:20:20;16.20;99.90
35668;DHT22;22158;59.280;17.806;2022-07-05T06:22:46;16.20;99.90
35668;DHT22;22158;59.280;17.806;2022-07-05T06:25:12;16.40;99.90
35668;DHT22;22158;59.280;17.806;2022-07-05T06:27:42;16.50;99.90
35668;DHT22;22158;59.280;17.806;2022-07-05T06:30:09;16.60;99.90
35668;DHT22;22158;59.280;17.806;2022-07-05T06:32:36;16.50;99.90
35668;DHT22;22158;59.280;17.806;2022-07-05T06:35:02;16.60;99.90
35668;DHT22;22158;59.280;17.806;2022-07-05T06:37:53;16.60;99.90
35668;DHT22;22158;59.280;17.806;2022-07-05T06:40:21;16.70;99.90
35668;DHT22;22158;59.280;17.806;2022-07-05T06:42:48;16.90;99.90
35668;DHT22;22158;59.280;17.806;2022-07-05T06:45:14;17.10;99.90
35668;DHT22;22158;59.280;17.806;2022-07-05T06:47:39;17.30;99.90
35668;DHT22;22158;59.280;17.806;2022-07-05T06:50:06;17.40;99.90
35668;DHT22;22158;59.280;17.806;2022-07-05T06:52:32;17.50;99.90
35668;DHT22;22158;59.280;17.806;2022-07-05T06:54:59;17.60;99.90
35668;DHT22;22158;59.280;17.806;2022-07-05T06:57:25;17.70;99.90
35668;DHT22;22158;59.280;17.806;2022-07-05T06:59:51;17.70;99.90
35668;DHT22;22158;59.280;17.806;2022-07-05T07:02:17;17.70;99.90
35668;DHT22;22158;59.280;17.806;2022-07-05T07:04:45;17.80;99.90
35668;DHT22;22158;59.280;17.806;2022-07-05T07:07:10;17.90;99.90
35668;DHT22;22158;59.280;17.806;2022-07-05T07:10:08;18.00;99.90
35668;DHT22;22158;59.280;17.806;2022-07-05T07:12:34;17.80;99.50
35668;DHT22;22158;59.280;17.806;2022-07-05T07:15:00;17.60;99.90
35668;DHT22;22158;59.280;17.806;2022-07-05T07:17:25;17.40;99.90
35668;DHT22;22158;59.280;17.806;2022-07-05T07:19:51;17.50;99.90
35668;DHT22;22158;59.280;17.806;2022-07-05T07:22:17;17.50;99.90
35668;DHT22;22158;59.280;17.806;2022-07-05T07:24:42;17.70;99.90
35668;DHT22;22158;59.280;17.806;2022-07-05T07:27:08;17.80;99.90
35668;DHT22;22158;59.280;17.806;2022-07-05T07:29:36;18.00;99.70
35668;DHT22;22158;59.280;17.806;2022-07-05T07:32:03;18.10;99.30
35668;DHT22;22158;59.280;17.806;2022-07-05T07:34:29;18.00;99.60
35668;DHT22;22158;59.280;17.806;2022-07-05T07:36:56;18.00;99.90
35668;DHT22;22158;59.280;17.806;2022-07-05T07:39:22;18.10;99.90
35668;DHT22;22158;59.280;17.806;2022-07-05T07:41:48;18.10;99.90
35668;DHT22;22158;59.280;17.806;2022-07-05T07:44:14;18.20;98.70
35668;DHT22;22158;59.280;17.806;2022-07-05T07:46:40;18.20;99.90
35668;DHT22;22158;59.280;17.806;2022-07-05T07:49:07;18.30;99.90
35668;DHT22;22158;59.280;17.806;2022-07-05T07:51:33;18.30;98.70
35668;DHT22;22158;59.280;17.806;2022-07-05T07:53:59;18.30;99.80
35668;DHT22;22158;59.280;17.806;2022-07-05T07:56:25;18.40;99.30
35668;DHT22;22158;59.280;17.806;2022-07-05T07:58:51;18.50;97.90
35668;DHT22;22158;59.280;17.806;2022-07-05T08:01:17;18.50;97.80
35668;DHT22;22158;59.280;17.806;2022-07-05T08:03:43;18.60;97.90
35668;DHT22;22158;59.280;17.806;2022-07-05T08:06:10;18.70;98.20
35668;DHT22;22158;59.280;17.806;2022-07-05T08:08:40;18.70;98.50
35668;DHT22;22158;59.280;17.806;2022-07-05T08:11:08;18.80;97.90
35668;DHT22;22158;59.280;17.806;2022-07-05T08:13:35;18.60;97.70
35668;DHT22;22158;59.280;17.806;2022-07-05T08:16:01;18.40;98.80
35668;DHT22;22158;59.280;17.806;2022-07-05T08:18:27;18.10;98.00
35668;DHT22;22158;59.280;17.806;2022-07-05T08:21:12;18.10;99.90
35668;DHT22;22158;59.280;17.806;2022-07-05T08:24:00;18.20;99.90
35668;DHT22;22158;59.280;17.806;2022-07-05T08:26:26;18.50;99.90
35668;DHT22;22158;59.280;17.806;2022-07-05T08:28:52;18.60;98.10
35668;DHT22;22158;59.280;17.806;2022-07-05T08:31:18;18.80;97.50
35668;DHT22;22158;59.280;17.806;2022-07-05T08:33:44;18.80;97.50
35668;DHT22;22158;59.280;17.806;2022-07-05T08:36:10;18.80;97.70
35668;DHT22;22158;59.280;17.806;2022-07-05T08:38:35;18.90;99.00
35668;DHT22;22158;59.280;17.806;2022-07-05T08:41:02;19.00;99.20
35668;DHT22;22158;59.280;17.806;2022-07-05T08:43:28;18.90;97.20
35668;DHT22;22158;59.280;17.806;2022-07-05T08:45:55;18.80;98.00
35668;DHT22;22158;59.280;17.806;2022-07-05T08:48:24;18.70;97.60
35668;DHT22;22158;59.280;17.806;2022-07-05T08:50:51;18.60;97.60
35668;DHT22;22158;59.280;17.806;2022-07-05T08:53:21;18.80;98.10
35668;DHT22;22158;59.280;17.806;2022-07-05T08:55:47;19.10;98.70
35668;DHT22;22158;59.280;17.806;2022-07-05T08:58:14;19.40;97.30
35668;DHT22;22158;59.280;17.806;2022-07-05T09:00:42;19.70;97.80
35668;DHT22;22158;59.280;17.806;2022-07-05T09:03:08;19.90;96.20
35668;DHT22;22158;59.280;17.806;2022-07-05T09:05:44;20.10;96.00
35668;DHT22;22158;59.280;17.806;2022-07-05T09:08:13;20.10;94.80
35668;DHT22;22158;59.280;17.806;2022-07-05T09:10:43;19.70;95.10
35668;DHT22;22158;59.280;17.806;2022-07-05T09:13:09;19.50;95.30
35668;DHT22;22158;59.280;17.806;2022-07-05T09:15:38;19.40;96.70
35668;DHT22;22158;59.280;17.806;2022-07-05T09:18:04;19.40;94.70
35668;DHT22;22158;59.280;17.806;2022-07-05T09:20:30;19.40;94.20
35668;DHT22;22158;59.280;17.806;2022-07-05T09:22:56;19.40;95.30
35668;DHT22;22158;59.280;17.806;2022-07-05T09:25:28;19.50;96.60
35668;DHT22;22158;59.280;17.806;2022-07-05T09:27:59;19.60;94.80
35668;DHT22;22158;59.280;17.806;2022-07-05T09:36:08;20.20;94.60
35668;DHT22;22158;59.280;17.806;2022-07-05T09:38:28;20.10;95.60
35668;DHT22;22158;59.280;17.806;2022-07-05T09:40:58;19.90;94.80
35668;DHT22;22158;59.280;17.806;2022-07-05T09:43:26;19.70;94.70
35668;DHT22;22158;59.280;17.806;2022-07-05T09:46:00;19.50;95.60
35668;DHT22;22158;59.280;17.806;2022-07-05T09:48:27;19.40;95.00
35668;DHT22;22158;59.280;17.806;2022-07-05T09:51:07;19.30;95.60
35668;DHT22;22158;59.280;17.806;2022-07-05T09:53:49;19.30;96.20
35668;DHT22;22158;59.280;17.806;2022-07-05T09:56:16;19.40;95.90
35668;DHT22;22158;59.280;17.806;2022-07-05T09:58:43;19.80;95.60
35668;DHT22;22158;59.280;17.806;2022-07-05T10:01:24;20.10;95.50
35668;DHT22;22158;59.280;17.806;2022-07-05T10:03:54;20.50;96.00
35668;DHT22;22158;59.280;17.806;2022-07-05T10:06:25;20.70;97.00
35668;DHT22;22158;59.280;17.806;2022-07-05T10:08:52;20.90;94.40
35668;DHT22;22158;59.280;17.806;2022-07-05T10:11:19;21.00;94.70
35668;DHT22;22158;59.280;17.806;2022-07-05T10:13:48;21.20;94.70
35668;DHT22;22158;59.280;17.806;2022-07-05T10:16:21;21.30;95.50
35668;DHT22;22158;59.280;17.806;2022-07-05T10:18:52;21.50;93.80
35668;DHT22;22158;59.280;17.806;2022-07-05T10:21:20;21.30;92.90
35668;DHT22;22158;59.280;17.806;2022-07-05T10:23:50;21.30;95.70
35668;DHT22;22158;59.280;17.806;2022-07-05T10:26:23;21.30;92.20
35668;DHT22;22158;59.280;17.806;2022-07-05T10:28:51;21.10;94.00
35668;DHT22;22158;59.280;17.806;2022-07-05T10:31:17;20.80;92.50
35668;DHT22;22158;59.280;17.806;2022-07-05T10:33:44;20.80;92.50
35668;DHT22;22158;59.280;17.806;2022-07-05T10:36:11;20.60;93.20
35668;DHT22;22158;59.280;17.806;2022-07-05T10:38:39;20.50;93.20
35668;DHT22;22158;59.280;17.806;2022-07-05T10:41:09;20.30;94.90
35668;DHT22;22158;59.280;17.806;2022-07-05T10:43:36;20.10;94.40
35668;DHT22;22158;59.280;17.806;2022-07-05T10:46:02;20.10;95.60
35668;DHT22;22158;59.280;17.806;2022-07-05T10:48:32;20.00;96.60
35668;DHT22;22158;59.280;17.806;2022-07-05T10:58:33;19.20;99.90
35668;DHT22;22158;59.280;17.806;2022-07-05T11:03:53;19.30;99.20
35668;DHT22;22158;59.280;17.806;2022-07-05T11:14:29;19.80;96.60
35668;DHT22;22158;59.280;17.806;2022-07-05T11:17:12;19.90;95.00
35668;DHT22;22158;59.280;17.806;2022-07-05T11:20:00;20.20;96.00
35668;DHT22;22158;59.280;17.806;2022-07-05T11:22:27;20.50;94.50
35668;DHT22;22158;59.280;17.806;2022-07-05T11:24:53;20.90;94.30
35668;DHT22;22158;59.280;17.806;2022-07-05T11:27:20;21.30;93.40
35668;DHT22;22158;59.280;17.806;2022-07-05T11:29:50;21.40;93.30
35668;DHT22;22158;59.280;17.806;2022-07-05T11:32:17;21.50;92.00
35668;DHT22;22158;59.280;17.806;2022-07-05T11:34:44;21.40;93.20
35668;DHT22;22158;59.280;17.806;2022-07-05T11:37:21;21.50;93.40
35668;DHT22;22158;59.280;17.806;2022-07-05T11:42:36;21.90;91.50
35668;DHT22;22158;59.280;17.806;2022-07-05T11:45:11;21.70;91.70
35668;DHT22;22158;59.280;17.806;2022-07-05T11:47:37;21.80;92.70
35668;DHT22;22158;59.280;17.806;2022-07-05T11:50:04;22.00;92.30
35668;DHT22;22158;59.280;17.806;2022-07-05T11:52:31;22.30;90.90
35668;DHT22;22158;59.280;17.806;2022-07-05T11:54:58;22.50;90.80
35668;DHT22;22158;59.280;17.806;2022-07-05T11:57:25;22.60;90.20
35668;DHT22;22158;59.280;17.806;2022-07-05T11:59:51;23.00;91.00
35668;DHT22;22158;59.280;17.806;2022-07-05T12:02:18;22.90;88.90
35668;DHT22;22158;59.280;17.806;2022-07-05T12:04:51;22.60;87.90
35668;DHT22;22158;59.280;17.806;2022-07-05T12:07:34;22.10;89.10
35668;DHT22;22158;59.280;17.806;2022-07-05T12:10:01;21.90;92.40
35668;DHT22;22158;59.280;17.806;2022-07-05T12:12:47;21.50;91.80
35668;DHT22;22158;59.280;17.806;2022-07-05T12:17:40;20.10;95.10
35668;DHT22;22158;59.280;17.806;2022-07-05T12:20:08;19.80;97.20
35668;DHT22;22158;59.280;17.806;2022-07-05T12:22:36;19.40;99.00
35668;DHT22;22158;59.280;17.806;2022-07-05T12:25:04;19.00;98.80
35668;DHT22;22158;59.280;17.806;2022-07-05T12:27:31;18.80;99.90
35668;DHT22;22158;59.280;17.806;2022-07-05T12:29:58;18.70;99.90
35668;DHT22;22158;59.280;17.806;2022-07-05T12:32:24;18.60;99.90
35668;DHT22;22158;59.280;17.806;2022-07-05T12:34:50;18.70;99.90
35668;DHT22;22158;59.280;17.806;2022-07-05T12:37:26;18.60;99.20
35668;DHT22;22158;59.280;17.806;2022-07-05T12:40:07;18.40;99.60
35668;DHT22;22158;59.280;17.806;2022-07-05T12:42:35;18.50;99.90
35668;DHT22;22158;59.280;17.806;2022-07-05T12:45:17;18.50;99.90
35668;DHT22;22158;59.280;17.806;2022-07-05T12:47:51;18.60;99.90
35668;DHT22;22158;59.280;17.806;2022-07-05T12:50:19;18.60;99.90
35668;DHT22;22158;59.280;17.806;2022-07-05T12:53:03;18.80;99.90
35668;DHT22;22158;59.280;17.806;2022-07-05T12:55:50;18.80;99.90
35668;DHT22;22158;59.280;17.806;2022-07-05T13:01:27;19.40;99.90
35668;DHT22;22158;59.280;17.806;2022-07-05T13:04:19;19.50;99.90
35668;DHT22;22158;59.280;17.806;2022-07-05T13:06:55;20.00;99.90
35668;DHT22;22158;59.280;17.806;2022-07-05T13:09:35;20.70;98.20
35668;DHT22;22158;59.280;17.806;2022-07-05T13:14:34;21.60;96.30
35668;DHT22;22158;59.280;17.806;2022-07-05T13:17:00;22.10;95.70
35668;DHT22;22158;59.280;17.806;2022-07-05T13:19:26;21.90;94.70
35668;DHT22;22158;59.280;17.806;2022-07-05T13:21:51;21.70;95.20
35668;DHT22;22158;59.280;17.806;2022-07-05T13:24:17;21.40;95.70
35668;DHT22;22158;59.280;17.806;2022-07-05T13:26:43;21.30;96.30
35668;DHT22;22158;59.280;17.806;2022-07-05T13:29:09;21.50;97.40
35668;DHT22;22158;59.280;17.806;2022-07-05T13:31:34;21.40;96.10
35668;DHT22;22158;59.280;17.806;2022-07-05T13:34:00;21.30;97.00
35668;DHT22;22158;59.280;17.806;2022-07-05T13:36:26;21.20;96.80
35668;DHT22;22158;59.280;17.806;2022-07-05T13:38:52;21.20;96.20
35668;DHT22;22158;59.280;17.806;2022-07-05T13:41:18;21.50;96.00
35668;DHT22;22158;59.280;17.806;2022-07-05T13:43:44;22.00;95.70
35668;DHT22;22158;59.280;17.806;2022-07-05T13:46:10;22.00;94.20
35668;DHT22;22158;59.280;17.806;2022-07-05T13:48:37;22.30;92.70
35668;DHT22;22158;59.280;17.806;2022-07-05T13:51:03;22.50;93.10
35668;DHT22;22158;59.280;17.806;2022-07-05T13:53:28;22.80;92.80
35668;DHT22;22158;59.280;17.806;2022-07-05T13:55:54;23.00;92.80
35668;DHT22;22158;59.280;17.806;2022-07-05T13:58:20;23.50;92.40
35668;DHT22;22158;59.280;17.806;2022-07-05T14:00:46;24.00;92.10
35668;DHT22;22158;59.280;17.806;2022-07-05T14:03:11;24.40;88.70
35668;DHT22;22158;59.280;17.806;2022-07-05T14:05:37;24.60;90.00
35668;DHT22;22158;59.280;17.806;2022-07-05T14:08:03;24.50;89.30
35668;DHT22;22158;59.280;17.806;2022-07-05T14:10:29;24.40;87.70
35668;DHT22;22158;59.280;17.806;2022-07-05T14:12:54;24.40;88.10
35668;DHT22;22158;59.280;17.806;2022-07-05T14:15:20;24.10;90.90
35668;DHT22;22158;59.280;17.806;2022-07-05T14:17:46;23.70;89.90
35668;DHT22;22158;59.280;17.806;2022-07-05T14:20:11;23.50;90.90
35668;DHT22;22158;59.280;17.806;2022-07-05T14:22:38;23.20;91.60
35668;DHT22;22158;59.280;17.806;2022-07-05T14:25:04;23.00;92.50
35668;DHT22;22158;59.280;17.806;2022-07-05T14:27:31;23.10;93.40
35668;DHT22;22158;59.280;17.806;2022-07-05T14:29:56;23.10;92.70
35668;DHT22;22158;59.280;17.806;2022-07-05T14:32:23;22.90;92.60
35668;DHT22;22158;59.280;17.806;2022-07-05T14:34:48;22.90;92.70
35668;DHT22;22158;59.280;17.806;2022-07-05T14:37:14;22.80;91.40
35668;DHT22;22158;59.280;17.806;2022-07-05T14:39:40;22.60;92.70
35668;DHT22;22158;59.280;17.806;2022-07-05T14:42:06;22.70;93.20
35668;DHT22;22158;59.280;17.806;2022-07-05T14:44:32;22.80;91.20
35668;DHT22;22158;59.280;17.806;2022-07-05T14:46:58;22.70;92.80
35668;DHT22;22158;59.280;17.806;2022-07-05T14:49:23;22.70;91.80
35668;DHT22;22158;59.280;17.806;2022-07-05T14:51:49;22.70;91.80
35668;DHT22;22158;59.280;17.806;2022-07-05T14:54:15;22.60;92.20
35668;DHT22;22158;59.280;17.806;2022-07-05T14:56:40;22.60;92.90
35668;DHT22;22158;59.280;17.806;2022-07-05T14:59:06;22.90;92.70
35668;DHT22;22158;59.280;17.806;2022-07-05T15:01:32;23.30;92.60
35668;DHT22;22158;59.280;17.806;2022-07-05T15:03:57;23.80;91.90
35668;DHT22;22158;59.280;17.806;2022-07-05T15:06:23;24.20;90.30
35668;DHT22;22158;59.280;17.806;2022-07-05T15:08:49;24.10;90.40
35668;DHT22;22158;59.280;17.806;2022-07-05T15:11:14;24.40;89.50
35668;DHT22;22158;59.280;17.806;2022-07-05T15:13:40;24.50;85.80
35668;DHT22;22158;59.280;17.806;2022-07-05T15:16:06;24.20;83.60
35668;DHT22;22158;59.280;17.806;2022-07-05T15:18:32;24.50;84.60
35668;DHT22;22158;59.280;17.806;2022-07-05T15:20:58;24.70;86.40
35668;DHT22;22158;59.280;17.806;2022-07-05T15:23:24;25.10;86.90
35668;DHT22;22158;59.280;17.806;2022-07-05T15:25:53;25.50;83.40
35668;DHT22;22158;59.280;17.806;2022-07-05T15:28:20;25.40;83.50
35668;DHT22;22158;59.280;17.806;2022-07-05T15:30:46;25.30;80.10
35668;DHT22;22158;59.280;17.806;2022-07-05T15:33:12;25.20;81.30
35668;DHT22;22158;59.280;17.806;2022-07-05T15:35:37;25.20;85.00
35668;DHT22;22158;59.280;17.806;2022-07-05T15:38:03;25.40;82.80
35668;DHT22;22158;59.280;17.806;2022-07-05T15:40:29;25.80;83.10
35668;DHT22;22158;59.280;17.806;2022-07-05T15:42:55;26.00;81.50
35668;DHT22;22158;59.280;17.806;2022-07-05T15:45:20;26.40;85.90
35668;DHT22;22158;59.280;17.806;2022-07-05T15:47:46;26.00;80.00
35668;DHT22;22158;59.280;17.806;2022-07-05T15:50:12;26.00;80.00
35668;DHT22;22158;59.280;17.806;2022-07-05T15:52:39;25.60;79.70